createdAt,value
2023-05-06T00:01:23.002Z,57.74
2023-05-06T00:03:51.685Z,57.64
2023-05-06T00:06:19.701Z,57.71
2023-05-06T00:08:48.081Z,57.86
2023-05-06T00:11:16.271Z,57.82
2023-05-06T00:13:43.979Z,58.02
2023-05-06T00:16:12.138Z,57.98
2023-05-06T00:18:41.195Z,58.03
2023-05-06T00:21:08.862Z,58.02
2023-05-06T00:23:37.355Z,58.10
2023-05-06T00:26:06.418Z,58.36
2023-05-06T00:28:34.219Z,58.20
2023-05-06T00:31:02.455Z,58.37
2023-05-06T00:33:30.722Z,58.29
2023-05-06T00:35:59.112Z,58.21
2023-05-06T00:38:27.250Z,58.31
2023-05-06T00:40:54.957Z,58.42
2023-05-06T00:43:22.643Z,58.43
2023-05-06T00:45:51.444Z,58.59
2023-05-06T00:48:19.745Z,58.62
2023-05-06T00:50:47.913Z,58.72
2023-05-06T00:53:19.208Z,58.72
2023-05-06T00:55:48.073Z,58.91
2023-05-06T00:58:15.918Z,58.80
2023-05-06T01:00:44.750Z,58.87
2023-05-06T01:03:13.020Z,58.83
2023-05-06T01:05:59.562Z,58.79
2023-05-06T01:08:35.150Z,58.81
2023-05-06T01:11:17.568Z,58.93
2023-05-06T01:13:56.458Z,59.06
2023-05-06T01:16:27.161Z,59.12
2023-05-06T01:18:55.131Z,59.18
2023-05-06T01:21:26.883Z,59.24
2023-05-06T01:23:58.033Z,59.27
2023-05-06T01:26:27.350Z,59.21
2023-05-06T01:28:56.092Z,59.41
2023-05-06T01:31:27.791Z,59.35
2023-05-06T01:34:18.437Z,59.37
2023-05-06T01:37:04.662Z,59.61
2023-05-06T01:39:34.267Z,59.54
2023-05-06T01:42:02.870Z,59.57
2023-05-06T01:44:34.739Z,59.60
2023-05-06T01:47:03.095Z,59.64
2023-05-06T01:49:30.967Z,59.68
2023-05-06T01:51:58.751Z,59.73
2023-05-06T01:54:26.468Z,59.92
2023-05-06T01:56:54.361Z,59.76
2023-05-06T01:59:22.659Z,59.89
2023-05-06T02:01:50.842Z,59.91
2023-05-06T02:04:18.549Z,60.01
2023-05-06T02:06:46.260Z,59.93
2023-05-06T02:09:13.980Z,60.01
2023-05-06T02:11:41.731Z,60.01
2023-05-06T02:14:09.850Z,60.17
2023-05-06T02:16:38.188Z,60.23
2023-05-06T02:19:06.558Z,60.17
2023-05-06T02:21:34.240Z,60.26
2023-05-06T02:24:01.933Z,60.33
2023-05-06T02:26:29.690Z,60.32
2023-05-06T02:28:57.941Z,60.40
2023-05-06T02:31:26.130Z,60.46
2023-05-06T02:33:53.818Z,60.37
2023-05-06T02:36:21.525Z,60.55
2023-05-06T02:38:49.203Z,60.68
2023-05-06T02:41:16.929Z,60.62
2023-05-06T02:43:45.119Z,60.67
2023-05-06T02:46:13.892Z,60.78
2023-05-06T02:48:42.074Z,60.76
2023-05-06T02:51:09.789Z,60.97
2023-05-06T02:53:37.449Z,60.82
2023-05-06T02:56:06.102Z,61.00
2023-05-06T02:58:34.263Z,61.07
2023-05-06T03:01:02.590Z,61.41
2023-05-06T03:03:30.515Z,61.18
2023-05-06T03:05:58.197Z,61.19
2023-05-06T03:08:25.862Z,61.17
2023-05-06T03:10:53.582Z,61.25
2023-05-06T03:13:21.406Z,61.31
2023-05-06T03:15:56.625Z,61.36
2023-05-06T03:18:24.294Z,61.40
2023-05-06T03:20:51.951Z,61.55
2023-05-06T03:23:19.838Z,61.63
2023-05-06T03:25:47.534Z,61.49
2023-05-06T03:28:15.671Z,61.67
2023-05-06T03:30:43.354Z,61.74
2023-05-06T03:33:11.062Z,61.76
2023-05-06T03:35:38.784Z,61.94
2023-05-06T03:38:07.388Z,61.82
2023-05-06T03:40:35.554Z,61.84
2023-05-06T03:43:03.707Z,62.04
2023-05-06T03:45:31.428Z,61.99
2023-05-06T03:47:59.117Z,62.14
2023-05-06T03:50:26.882Z,62.10
2023-05-06T03:52:54.665Z,62.15
2023-05-06T03:55:22.896Z,62.34
2023-05-06T03:57:51.082Z,62.21
2023-05-06T04:00:18.911Z,62.27
2023-05-06T04:02:46.929Z,62.18
2023-05-06T04:05:14.657Z,62.39
2023-05-06T04:07:42.350Z,62.36
2023-05-06T04:10:10.454Z,62.58
2023-05-06T04:12:38.149Z,62.69
2023-05-06T04:15:07.554Z,62.74
2023-05-06T04:17:35.459Z,62.65
2023-05-06T04:20:11.576Z,62.81
2023-05-06T04:22:39.523Z,62.88
2023-05-06T04:25:08.584Z,62.91
2023-05-06T04:27:36.538Z,62.90
2023-05-06T04:30:04.639Z,63.11
2023-05-06T04:32:34.174Z,63.01
2023-05-06T04:35:02.889Z,62.90
2023-05-06T04:37:30.949Z,63.10
2023-05-06T04:39:58.758Z,63.30
2023-05-06T04:42:26.625Z,63.26
2023-05-06T04:44:54.610Z,63.52
2023-05-06T04:47:22.834Z,63.56
2023-05-06T04:49:50.617Z,63.51
2023-05-06T04:52:18.537Z,63.58
2023-05-06T04:54:46.434Z,63.52
2023-05-06T04:57:14.228Z,63.76
2023-05-06T04:59:42.833Z,63.74
2023-05-06T05:02:11.796Z,63.63
2023-05-06T05:04:39.554Z,63.51
2023-05-06T05:07:07.711Z,63.61
2023-05-06T05:09:35.931Z,63.57
2023-05-06T05:12:03.831Z,63.59
2023-05-06T05:14:31.615Z,63.45
2023-05-06T05:16:59.875Z,63.57
2023-05-06T05:19:27.582Z,63.54
2023-05-06T05:21:55.371Z,63.43
2023-05-06T05:24:23.058Z,63.59
2023-05-06T05:26:50.723Z,63.55
2023-05-06T05:29:18.446Z,63.47
2023-05-06T05:31:46.843Z,63.54
2023-05-06T05:34:14.707Z,63.37
2023-05-06T05:36:42.829Z,63.33
2023-05-06T05:39:10.511Z,63.19
2023-05-06T05:41:38.270Z,63.14
2023-05-06T05:44:06.051Z,63.17
2023-05-06T05:46:34.488Z,63.40
2023-05-06T05:49:02.259Z,63.49
2023-05-06T05:51:30.026Z,63.42
2023-05-06T05:53:57.829Z,63.31
2023-05-06T05:56:25.693Z,63.31
2023-05-06T05:58:53.719Z,63.26
2023-05-06T06:01:22.040Z,63.07
2023-05-06T06:03:49.896Z,63.27
2023-05-06T06:06:17.899Z,63.03
2023-05-06T06:08:45.669Z,62.90
2023-05-06T06:11:13.353Z,62.81
2023-05-06T06:13:41.317Z,62.77
2023-05-06T06:16:09.534Z,62.92
2023-05-06T06:18:37.329Z,62.97
2023-05-06T06:21:05.260Z,62.74
2023-05-06T06:23:32.955Z,62.57
2023-05-06T06:26:03.189Z,62.61
2023-05-06T06:28:31.592Z,62.61
2023-05-06T06:30:59.874Z,62.56
2023-05-06T06:33:27.716Z,62.50
2023-05-06T06:35:55.501Z,62.44
2023-05-06T06:38:23.174Z,62.57
2023-05-06T06:40:50.834Z,62.40
2023-05-06T06:43:20.124Z,62.49
2023-05-06T06:45:48.572Z,62.39
2023-05-06T06:48:16.596Z,62.29
2023-05-06T06:50:44.355Z,62.50
2023-05-06T06:53:12.032Z,62.35
2023-05-06T06:55:44.052Z,62.23
2023-05-06T06:58:12.338Z,62.22
2023-05-06T07:00:40.518Z,62.48
2023-05-06T07:03:08.364Z,62.28
2023-05-06T07:05:36.176Z,62.23
2023-05-06T07:08:03.884Z,61.98
2023-05-06T07:10:31.685Z,61.96
2023-05-06T07:12:59.446Z,61.99
2023-05-06T07:15:27.627Z,62.03
2023-05-06T07:17:55.610Z,61.84
2023-05-06T07:20:23.676Z,61.94
2023-05-06T07:22:51.372Z,61.59
2023-05-06T07:25:19.131Z,61.61
2023-05-06T07:27:46.864Z,61.85
2023-05-06T07:30:16.047Z,61.60
2023-05-06T07:32:43.793Z,61.31
2023-05-06T07:35:11.851Z,61.42
2023-05-06T07:37:39.871Z,61.38
2023-05-06T07:40:08.374Z,61.08
2023-05-06T07:42:36.173Z,61.44
2023-05-06T07:45:05.830Z,61.10
2023-05-06T07:47:36.670Z,60.77
2023-05-06T07:50:06.929Z,60.96
2023-05-06T07:52:34.810Z,61.00
2023-05-06T07:55:02.619Z,60.94
2023-05-06T07:57:30.967Z,60.58
2023-05-06T07:59:58.744Z,60.43
2023-05-06T08:02:27.321Z,60.43
2023-05-06T08:04:55.173Z,60.41
2023-05-06T08:07:22.881Z,60.68
2023-05-06T08:09:51.236Z,60.33
2023-05-06T08:12:18.972Z,60.22
2023-05-06T08:14:46.780Z,60.19
2023-05-06T08:17:14.550Z,59.53
2023-05-06T08:19:42.237Z,59.69
2023-05-06T08:22:09.969Z,60.07
2023-05-06T08:24:38.086Z,59.90
2023-05-06T08:27:05.867Z,59.47
2023-05-06T08:29:33.553Z,59.53
2023-05-06T08:32:01.671Z,59.40
2023-05-06T08:34:29.478Z,59.51
2023-05-06T08:36:57.850Z,59.42
2023-05-06T08:39:25.796Z,59.30
2023-05-06T08:41:56.527Z,59.43
2023-05-06T08:44:25.216Z,59.23
2023-05-06T08:46:53.119Z,58.96
2023-05-06T08:49:21.677Z,59.30
2023-05-06T08:51:52.582Z,58.77
2023-05-06T08:54:25.253Z,58.85
2023-05-06T08:56:57.313Z,58.64
2023-05-06T08:59:26.852Z,58.85
2023-05-06T09:01:55.082Z,58.46
2023-05-06T09:04:23.070Z,57.69
2023-05-06T09:06:50.860Z,58.05
2023-05-06T09:09:19.134Z,58.40
2023-05-06T09:11:53.973Z,58.11
2023-05-06T09:14:22.557Z,57.97
2023-05-06T09:16:53.289Z,58.09
2023-05-06T09:19:22.622Z,57.80
2023-05-06T09:21:51.637Z,57.30
2023-05-06T09:24:20.890Z,57.55
2023-05-06T09:26:51.204Z,57.56
2023-05-06T09:29:18.920Z,57.16
2023-05-06T09:31:48.224Z,57.03
2023-05-06T09:34:17.518Z,56.97
2023-05-06T09:36:45.669Z,56.65
2023-05-06T09:39:13.791Z,56.61
2023-05-06T09:41:42.644Z,56.60
2023-05-06T09:44:11.655Z,56.58
2023-05-06T09:46:40.883Z,56.29
2023-05-06T09:49:08.843Z,56.31
2023-05-06T09:51:37.146Z,56.35
2023-05-06T09:54:05.989Z,56.42
2023-05-06T09:56:34.797Z,56.25
2023-05-06T09:59:04.363Z,56.25
2023-05-06T10:01:37.405Z,56.52
2023-05-06T10:04:09.688Z,56.32
2023-05-06T10:06:41.290Z,56.16
2023-05-06T10:09:10.556Z,56.32
2023-05-06T10:11:39.265Z,55.93
2023-05-06T10:14:07.805Z,56.10
2023-05-06T10:16:36.655Z,55.86
2023-05-06T10:19:08.116Z,55.94
2023-05-06T10:21:40.882Z,55.83
2023-05-06T10:24:13.430Z,55.65
2023-05-06T10:26:45.001Z,55.60
2023-05-06T10:29:13.571Z,55.60
2023-05-06T10:31:49.894Z,55.47
2023-05-06T10:34:21.405Z,55.20
2023-05-06T10:36:54.161Z,55.12
2023-05-06T10:39:22.008Z,55.18
2023-05-06T10:41:49.826Z,55.13
2023-05-06T10:44:17.564Z,55.16
2023-05-06T10:47:06.003Z,54.58
2023-05-06T10:49:34.180Z,54.34
2023-05-06T10:52:13.855Z,54.79
2023-05-06T10:54:50.475Z,54.45
2023-05-06T10:57:21.849Z,54.71
2023-05-06T10:59:50.169Z,54.39
2023-05-06T11:02:20.533Z,54.11
2023-05-06T11:04:59.664Z,53.36
2023-05-06T11:07:27.721Z,54.04
2023-05-06T11:10:00.921Z,54.32
2023-05-06T11:12:46.224Z,54.21
2023-05-06T11:15:21.281Z,54.34
2023-05-06T11:17:49.001Z,54.26
2023-05-06T11:20:21.666Z,54.14
2023-05-06T11:22:50.550Z,53.80
2023-05-06T11:25:41.523Z,53.73
2023-05-06T11:28:14.120Z,53.54
2023-05-06T11:30:44.911Z,53.29
2023-05-06T11:33:19.950Z,52.99
2023-05-06T11:35:48.116Z,53.01
2023-05-06T11:38:18.846Z,53.04
2023-05-06T11:40:46.699Z,52.74
2023-05-06T11:43:15.775Z,53.08
2023-05-06T11:45:45.907Z,53.06
2023-05-06T11:48:18.421Z,52.68
2023-05-06T11:50:47.786Z,52.47
2023-05-06T11:53:21.128Z,52.60
2023-05-06T11:55:52.406Z,52.41
2023-05-06T11:58:25.609Z,52.36
2023-05-06T12:00:55.939Z,52.03
2023-05-06T12:03:25.849Z,52.18
2023-05-06T12:05:54.515Z,52.34
2023-05-06T12:08:28.458Z,52.14
2023-05-06T12:11:03.358Z,52.06
2023-05-06T12:13:31.531Z,51.90
2023-05-06T12:16:00.508Z,51.99
2023-05-06T12:18:29.535Z,52.08
2023-05-06T12:21:02.585Z,51.78
2023-05-06T12:23:31.181Z,51.73
2023-05-06T12:26:06.662Z,51.52
2023-05-06T12:28:36.397Z,51.55
2023-05-06T12:31:26.097Z,51.69
2023-05-06T12:33:56.086Z,51.79
2023-05-06T12:36:24.986Z,51.64
2023-05-06T12:38:54.370Z,51.64
2023-05-06T12:41:23.618Z,51.74
2023-05-06T12:43:54.660Z,51.96
2023-05-06T12:46:25.777Z,51.47
2023-05-06T12:49:01.954Z,51.40
2023-05-06T12:51:33.666Z,51.47
2023-05-06T12:54:01.370Z,51.53
2023-05-06T12:56:29.112Z,51.53
2023-05-06T12:59:02.115Z,51.24
2023-05-06T13:01:31.532Z,51.34
2023-05-06T13:03:59.475Z,51.27
2023-05-06T13:06:27.198Z,51.31
2023-05-06T13:08:54.895Z,51.33
2023-05-06T13:11:25.785Z,51.25
2023-05-06T13:13:53.961Z,51.39
2023-05-06T13:16:22.182Z,51.45
2023-05-06T13:18:50.015Z,51.46
2023-05-06T13:21:17.744Z,51.34
2023-05-06T13:23:47.035Z,51.39
2023-05-06T13:26:15.603Z,51.52
2023-05-06T13:28:44.139Z,51.54
2023-05-06T13:31:12.345Z,51.61
2023-05-06T13:33:40.109Z,51.62
2023-05-06T13:36:08.257Z,51.55
2023-05-06T13:38:35.971Z,51.67
2023-05-06T13:41:04.187Z,51.58
2023-05-06T13:43:32.522Z,51.67
2023-05-06T13:46:00.332Z,51.73
2023-05-06T13:48:28.054Z,51.77
2023-05-06T13:50:56.177Z,51.81
2023-05-06T13:53:23.861Z,51.68
2023-05-06T13:55:52.251Z,51.93
2023-05-06T13:58:20.606Z,51.79
2023-05-06T14:00:48.853Z,51.87
2023-05-06T14:03:16.519Z,51.87
2023-05-06T14:05:44.352Z,51.91
2023-05-06T14:08:12.100Z,51.84
2023-05-06T14:10:40.355Z,51.85
2023-05-06T14:13:08.655Z,51.58
2023-05-06T14:15:36.478Z,51.85
2023-05-06T14:18:04.642Z,51.86
2023-05-06T14:20:32.711Z,51.79
2023-05-06T14:23:00.409Z,51.87
2023-05-06T14:25:28.607Z,51.81
2023-05-06T14:27:56.965Z,51.62
2023-05-06T14:30:25.909Z,51.67
2023-05-06T14:32:53.975Z,51.76
2023-05-06T14:35:22.083Z,51.72
2023-05-06T14:37:50.084Z,51.80
2023-05-06T14:40:18.340Z,51.82
2023-05-06T14:43:07.145Z,51.79
2023-05-06T14:45:35.134Z,51.84
2023-05-06T14:48:03.873Z,51.92
2023-05-06T14:50:32.380Z,51.90
2023-05-06T14:53:02.217Z,52.00
2023-05-06T14:55:31.305Z,52.23
2023-05-06T14:57:59.535Z,52.26
2023-05-06T15:00:27.429Z,52.46
2023-05-06T15:02:55.813Z,52.48
2023-05-06T15:05:23.665Z,52.62
2023-05-06T15:07:51.433Z,52.78
2023-05-06T15:22:23.756Z,53.90
2023-05-06T15:24:52.015Z,54.05
2023-05-06T15:27:19.731Z,54.14
2023-05-06T15:29:47.514Z,54.53
2023-05-06T15:32:15.515Z,55.00
2023-05-06T15:34:43.282Z,54.89
2023-05-06T15:37:12.122Z,54.99
2023-05-06T15:39:40.513Z,54.80
2023-05-06T15:42:10.052Z,55.06
2023-05-06T15:44:37.855Z,55.50
2023-05-06T15:47:06.353Z,55.36
2023-05-06T15:49:51.634Z,55.69
2023-05-06T15:52:23.041Z,55.91
2023-05-06T15:54:52.122Z,56.19
2023-05-06T15:57:20.504Z,56.29
2023-05-06T15:59:48.239Z,56.16
2023-05-06T16:04:46.917Z,56.58
2023-05-06T16:07:15.819Z,56.39
2023-05-06T16:09:44.574Z,56.82
2023-05-06T16:12:12.319Z,56.61
2023-05-06T16:14:40.179Z,56.70
2023-05-06T16:17:07.883Z,56.99
2023-05-06T16:19:35.640Z,57.06
2023-05-06T16:22:04.719Z,57.10
2023-05-06T16:24:33.166Z,57.23
2023-05-06T16:27:01.224Z,57.41
2023-05-06T16:29:28.971Z,58.36
2023-05-06T16:31:56.641Z,58.45
2023-05-06T16:34:24.507Z,58.80
2023-05-06T16:36:52.919Z,58.42
2023-05-06T16:39:21.113Z,58.80
2023-05-06T16:41:48.825Z,58.86
2023-05-06T16:44:16.851Z,59.30
2023-05-06T16:46:44.577Z,59.54
2023-05-06T16:49:12.626Z,60.38
2023-05-06T16:51:40.812Z,60.06
2023-05-06T16:54:09.056Z,60.43
2023-05-06T16:56:50.917Z,60.19
2023-05-06T16:59:22.282Z,60.27
2023-05-06T17:01:50.968Z,60.51
2023-05-06T17:04:19.344Z,60.25
2023-05-06T17:06:47.435Z,60.50
2023-05-06T17:09:16.422Z,60.56
2023-05-06T17:11:44.103Z,60.56
2023-05-06T17:14:11.835Z,60.60
2023-05-06T17:16:43.127Z,60.72
2023-05-06T17:19:12.292Z,60.94
2023-05-06T17:21:40.083Z,61.01
2023-05-06T17:24:07.820Z,61.09
2023-05-06T17:26:35.790Z,61.30
2023-05-06T17:29:04.067Z,61.30
2023-05-06T17:31:32.184Z,61.45
2023-05-06T17:34:00.872Z,61.66
2023-05-06T17:36:28.559Z,61.80
2023-05-06T17:39:06.590Z,61.74
2023-05-06T17:41:34.760Z,61.77
2023-05-06T17:44:02.469Z,61.80
2023-05-06T17:46:31.360Z,62.00
2023-05-06T17:48:59.186Z,62.13
2023-05-06T17:51:26.962Z,62.31
2023-05-06T17:53:55.144Z,62.70
2023-05-06T17:56:23.360Z,62.39
2023-05-06T17:58:51.803Z,62.44
2023-05-06T18:01:19.629Z,62.52
2023-05-06T18:03:47.429Z,62.69
2023-05-06T18:06:15.306Z,62.74
2023-05-06T18:08:44.491Z,62.98
2023-05-06T18:11:12.756Z,62.96
2023-05-06T18:13:40.464Z,63.10
2023-05-06T18:16:08.505Z,62.95
2023-05-06T18:18:36.320Z,62.97
2023-05-06T18:21:04.073Z,63.15
2023-05-06T18:23:32.472Z,63.18
2023-05-06T18:26:04.597Z,63.42
2023-05-06T18:28:36.817Z,63.30
2023-05-06T18:31:05.295Z,63.45
2023-05-06T18:33:36.584Z,63.72
2023-05-06T18:36:05.438Z,63.59
2023-05-06T18:38:33.127Z,63.67
2023-05-06T18:41:02.042Z,63.45
2023-05-06T18:43:32.554Z,63.48
2023-05-06T18:46:00.335Z,63.83
2023-05-06T18:48:31.026Z,63.97
2023-05-06T18:51:13.426Z,64.21
2023-05-06T18:53:42.202Z,64.29
2023-05-06T18:56:10.660Z,64.28
2023-05-06T18:58:40.164Z,64.29
2023-05-06T19:01:10.820Z,64.37
2023-05-06T19:03:38.898Z,64.30
2023-05-06T19:06:09.174Z,64.31
2023-05-06T19:08:37.495Z,64.52
2023-05-06T19:11:05.282Z,64.59
2023-05-06T19:13:33.687Z,64.31
2023-05-06T19:16:02.130Z,64.18
2023-05-06T19:18:29.889Z,64.83
2023-05-06T19:20:57.664Z,64.80
2023-05-06T19:23:25.348Z,64.98
2023-05-06T19:25:53.559Z,64.88
2023-05-06T19:28:22.039Z,65.02
2023-05-06T19:30:49.778Z,65.12
2023-05-06T19:33:17.486Z,65.20
2023-05-06T19:35:45.214Z,65.32
2023-05-06T19:38:13.365Z,65.25
2023-05-06T19:40:42.201Z,65.21
2023-05-06T19:43:09.886Z,65.48
2023-05-06T19:45:37.621Z,65.40
2023-05-06T19:48:05.725Z,65.52
2023-05-06T19:50:33.551Z,65.59
2023-05-06T19:53:01.828Z,65.68
2023-05-06T19:55:30.900Z,65.87
2023-05-06T19:57:59.017Z,65.85
2023-05-06T20:00:28.156Z,65.90
2023-05-06T20:02:59.953Z,65.93
2023-05-06T20:05:32.124Z,66.05
2023-05-06T20:08:00.866Z,66.12
2023-05-06T20:10:29.704Z,66.15
2023-05-06T20:12:57.976Z,66.14
2023-05-06T20:15:26.815Z,66.26
2023-05-06T20:17:54.564Z,66.32
2023-05-06T20:20:22.755Z,66.29
2023-05-06T20:22:50.946Z,66.42
2023-05-06T20:25:18.954Z,66.44
2023-05-06T20:27:49.915Z,66.68
2023-05-06T20:30:20.353Z,66.71
2023-05-06T20:32:51.885Z,66.76
2023-05-06T20:35:20.431Z,66.74
2023-05-06T20:37:48.604Z,66.68
2023-05-06T20:40:16.361Z,66.43
2023-05-06T20:42:44.125Z,66.64
2023-05-06T20:45:13.221Z,66.59
2023-05-06T20:47:41.060Z,66.92
2023-05-06T20:50:16.315Z,66.88
2023-05-06T20:52:46.028Z,67.11
2023-05-06T20:55:16.829Z,66.99
2023-05-06T20:57:45.051Z,67.03
2023-05-06T21:00:14.652Z,67.06
2023-05-06T21:02:42.552Z,67.25
2023-05-06T21:05:11.732Z,67.22
2023-05-06T21:07:39.896Z,67.32
2023-05-06T21:10:11.104Z,67.39
2023-05-06T21:12:39.650Z,67.51
2023-05-06T21:15:08.114Z,67.51
2023-05-06T21:17:36.495Z,67.52
2023-05-06T21:20:06.226Z,67.76
2023-05-06T21:22:34.143Z,67.79
2023-05-06T21:25:02.348Z,67.72
2023-05-06T21:27:30.137Z,67.82
2023-05-06T21:29:57.799Z,67.95
2023-05-06T21:32:26.087Z,67.95
2023-05-06T21:34:53.778Z,68.05
2023-05-06T21:37:21.936Z,68.07
2023-05-06T21:39:49.593Z,68.13
2023-05-06T21:42:17.335Z,68.19
2023-05-06T21:44:45.001Z,68.16
2023-05-06T21:47:13.200Z,68.22
2023-05-06T21:49:40.940Z,68.25
2023-05-06T21:52:09.153Z,68.27
2023-05-06T21:54:36.820Z,68.24
2023-05-06T21:57:08.060Z,68.34
2023-05-06T21:59:36.281Z,68.41
2023-05-06T22:02:04.670Z,68.42
2023-05-06T22:04:33.004Z,68.43
2023-05-06T22:07:01.303Z,68.62
2023-05-06T22:09:29.032Z,68.57
2023-05-06T22:11:56.751Z,68.56
2023-05-06T22:14:33.551Z,68.71
2023-05-06T22:17:08.115Z,68.83
2023-05-06T22:19:35.834Z,68.81
2023-05-06T22:22:04.347Z,68.64
2023-05-06T22:24:32.076Z,68.61
2023-05-06T22:26:59.767Z,68.70
2023-05-06T22:29:27.455Z,68.80
2023-05-06T22:31:55.940Z,68.90
2023-05-06T22:34:23.628Z,68.92
2023-05-06T22:36:51.306Z,68.89
2023-05-06T22:39:19.014Z,68.92
2023-05-06T22:41:48.499Z,69.26
2023-05-06T22:44:16.977Z,69.10
2023-05-06T22:46:45.362Z,69.13
2023-05-06T22:49:13.963Z,69.07
2023-05-06T22:51:41.888Z,69.08
2023-05-06T22:54:09.649Z,69.29
2023-05-06T22:56:37.466Z,69.05
2023-05-06T22:59:05.916Z,69.17
2023-05-06T23:01:33.731Z,69.28
2023-05-06T23:04:01.475Z,69.20
2023-05-06T23:06:30.898Z,69.26
2023-05-06T23:08:59.295Z,69.18
2023-05-06T23:11:26.992Z,69.60
2023-05-06T23:13:54.634Z,69.54
2023-05-06T23:16:23.621Z,69.44
2023-05-06T23:18:51.370Z,69.65
2023-05-06T23:21:19.054Z,69.75
2023-05-06T23:23:46.748Z,69.70
2023-05-06T23:26:15.238Z,69.74
2023-05-06T23:28:42.949Z,69.76
2023-05-06T23:31:10.800Z,69.65
2023-05-06T23:33:38.580Z,70.20
2023-05-06T23:36:06.639Z,69.75
2023-05-06T23:38:38.006Z,69.98
2023-05-06T23:41:06.521Z,69.86
2023-05-06T23:43:34.253Z,69.86
2023-05-06T23:46:01.983Z,69.87
2023-05-06T23:48:29.789Z,70.08
2023-05-06T23:50:57.475Z,70.05
2023-05-06T23:53:25.664Z,70.12
2023-05-06T23:55:54.431Z,70.02
2023-05-06T23:58:22.217Z,70.28
